Time;durP1;ratioP1;P1;durP2;ratioP2;P2;SDS_P1;SDS_P2;PMS_P1;PMS_P2;Temp;Humidity;BMP_temperature;BMP_pressure;BME280_temperature;BME280_humidity;BME280_pressure;Samples;Min_cycle;Max_cycle;Signal;HPM_P1;HPM_P2
2024/03/13 00:02:25;;;;;;;16.08;6.50;;;;;;;;;;5093734;28;20030;-67
2024/03/13 00:04:50;;;;;;;14.45;6.70;;;;;;;;;;5093467;28;20357;-69
2024/03/13 00:07:16;;;;;;;16.77;6.75;;;;;;;;;;5093174;28;20089;-69
2024/03/13 00:09:50;;;;;;;21.55;6.65;;;;;;;;;;5093402;28;20028;-69
2024/03/13 00:12:16;;;;;;;17.52;6.18;;;;;;;;;;5094055;28;20032;-68
2024/03/13 00:14:50;;;;;;;13.73;6.38;;;;;;;;;;5092826;28;20119;-68
2024/03/13 00:17:20;;;;;;;13.88;5.50;;;;;;;;;;5093327;28;20020;-67
2024/03/13 00:19:47;;;;;;;12.85;6.05;;;;;;;;;;5094092;28;20107;-66
2024/03/13 00:22:14;;;;;;;12.70;5.93;;;;;;;;;;5093217;28;20103;-65
2024/03/13 00:24:39;;;;;;;11.82;5.63;;;;;;;;;;5092402;28;20066;-67
2024/03/13 00:27:04;;;;;;;16.20;5.13;;;;;;;;;;5093941;28;20048;-66
2024/03/13 00:29:31;;;;;;;17.00;5.20;;;;;;;;;;5093143;28;20024;-67
2024/03/13 00:31:56;;;;;;;12.20;5.55;;;;;;;;;;5093342;28;20035;-66
2024/03/13 00:34:21;;;;;;;12.85;5.40;;;;;;;;;;5092668;28;20032;-66
2024/03/13 00:36:50;;;;;;;9.38;5.22;;;;;;;;;;5093155;28;20477;-68
2024/03/13 00:39:15;;;;;;;15.40;5.72;;;;;;;;;;5093401;28;20031;-67
2024/03/13 00:41:41;;;;;;;14.32;5.22;;;;;;;;;;5094048;28;20027;-66
2024/03/13 00:44:07;;;;;;;10.73;5.10;;;;;;;;;;5092831;28;20107;-67
2024/03/13 00:46:33;;;;;;;13.55;5.32;;;;;;;;;;5092478;28;20077;-66
2024/03/13 00:48:58;;;;;;;8.93;5.13;;;;;;;;;;5099988;28;20438;-66
2024/03/13 00:51:24;;;;;;;11.32;4.72;;;;;;;;;;5112967;28;20020;-67
2024/03/13 00:53:49;;;;;;;11.73;4.63;;;;;;;;;;5113085;28;20155;-66
2024/03/13 00:56:15;;;;;;;11.80;4.47;;;;;;;;;;5112697;28;20039;-65
2024/03/13 00:58:44;;;;;;;11.07;5.63;;;;;;;;;;5113236;28;20358;-68
2024/03/13 01:01:11;;;;;;;10.65;4.93;;;;;;;;;;5113261;28;20387;-68
2024/03/13 01:03:37;;;;;;;11.43;4.53;;;;;;;;;;5109756;28;20047;-68
2024/03/13 01:06:04;;;;;;;9.82;4.13;;;;;;;;;;5112652;28;20023;-67
2024/03/13 01:08:29;;;;;;;11.85;4.78;;;;;;;;;;5110074;28;20085;-67
2024/03/13 01:10:55;;;;;;;13.50;4.43;;;;;;;;;;5112756;28;20031;-66
2024/03/13 01:13:21;;;;;;;8.90;4.40;;;;;;;;;;5109862;28;20019;-66
2024/03/13 01:15:47;;;;;;;11.00;4.68;;;;;;;;;;5112614;28;20084;-68
2024/03/13 01:18:12;;;;;;;13.30;4.65;;;;;;;;;;5111682;28;20032;-67
2024/03/13 01:20:39;;;;;;;8.88;4.47;;;;;;;;;;5111835;28;20102;-68
2024/03/13 01:23:05;;;;;;;9.35;4.25;;;;;;;;;;5112398;28;20027;-67
2024/03/13 01:25:31;;;;;;;8.45;3.92;;;;;;;;;;5111195;28;20023;-67
2024/03/13 01:27:56;;;;;;;11.18;4.35;;;;;;;;;;5102839;28;20144;-68
2024/03/13 01:30:23;;;;;;;9.82;3.95;;;;;;;;;;5092117;28;20119;-68
2024/03/13 01:32:49;;;;;;;11.75;4.38;;;;;;;;;;5092194;28;20491;-67
2024/03/13 01:35:16;;;;;;;9.95;4.85;;;;;;;;;;5093769;28;20032;-66
2024/03/13 01:38:01;;;;;;;10.05;4.03;;;;;;;;;;5112356;28;20062;-67
2024/03/13 01:57:13;;;;;;;7.43;3.88;;;;;;;;;;5071876;28;20028;-66
2024/03/13 02:02:35;;;;;;;8.45;4.72;;;;;;;;;;5095747;28;20027;-67
2024/03/13 02:05:01;;;;;;;10.77;4.68;;;;;;;;;;5112245;28;20020;-66
2024/03/13 02:07:26;;;;;;;10.38;4.50;;;;;;;;;;5112460;28;20111;-66
2024/03/13 02:09:54;;;;;;;8.63;4.45;;;;;;;;;;5112118;28;20019;-67
2024/03/13 02:12:19;;;;;;;7.25;4.20;;;;;;;;;;5112037;28;20035;-66
2024/03/13 02:14:45;;;;;;;12.55;4.60;;;;;;;;;;5099054;28;20039;-67
2024/03/13 02:17:11;;;;;;;10.15;4.93;;;;;;;;;;5091884;28;20027;-65
2024/03/13 02:19:36;;;;;;;9.98;4.70;;;;;;;;;;5092538;28;20573;-65
2024/03/13 02:22:04;;;;;;;8.07;4.70;;;;;;;;;;5100010;28;20027;-66
2024/03/13 02:24:30;;;;;;;10.68;4.97;;;;;;;;;;5112428;28;20082;-66
2024/03/13 02:26:55;;;;;;;9.93;4.97;;;;;;;;;;5112585;28;20128;-62
2024/03/13 02:29:21;;;;;;;11.70;5.00;;;;;;;;;;5111914;28;20030;-66
2024/03/13 02:31:46;;;;;;;9.27;4.38;;;;;;;;;;5112888;28;20031;-66
2024/03/13 02:34:13;;;;;;;9.23;5.53;;;;;;;;;;5114820;28;20122;-63
2024/03/13 02:36:38;;;;;;;11.45;5.07;;;;;;;;;;5113936;28;20024;-65
2024/03/13 02:39:04;;;;;;;9.40;4.65;;;;;;;;;;5115217;28;20049;-64
2024/03/13 02:41:29;;;;;;;10.20;5.60;;;;;;;;;;5115216;28;20019;-64
2024/03/13 02:43:57;;;;;;;11.23;5.05;;;;;;;;;;5116045;28;20114;-66
2024/03/13 02:46:23;;;;;;;9.85;5.90;;;;;;;;;;5099293;28;20453;-65
2024/03/13 02:48:48;;;;;;;9.63;5.07;;;;;;;;;;5094803;28;20028;-67
2024/03/13 02:51:13;;;;;;;8.85;5.22;;;;;;;;;;5094731;28;20020;-66
2024/03/13 02:53:39;;;;;;;11.80;5.68;;;;;;;;;;5095005;28;20470;-66
2024/03/13 02:56:07;;;;;;;14.65;6.15;;;;;;;;;;5095104;28;20085;-65
2024/03/13 02:58:32;;;;;;;10.20;5.63;;;;;;;;;;5094648;28;20032;-66
2024/03/13 03:00:58;;;;;;;10.07;5.72;;;;;;;;;;5095539;28;20024;-60
2024/03/13 03:03:24;;;;;;;9.10;5.60;;;;;;;;;;5095053;28;20355;-63
2024/03/13 03:05:49;;;;;;;10.70;5.68;;;;;;;;;;5094804;28;20024;-67
2024/03/13 03:08:15;;;;;;;14.27;5.88;;;;;;;;;;5097058;28;20019;-66
2024/03/13 03:10:40;;;;;;;10.73;5.70;;;;;;;;;;5114657;27;20110;-66
2024/03/13 03:13:08;;;;;;;10.98;5.00;;;;;;;;;;5114741;27;20387;-66
2024/03/13 03:15:34;;;;;;;11.32;5.75;;;;;;;;;;5114461;28;20362;-66
2024/03/13 03:18:01;;;;;;;13.40;5.70;;;;;;;;;;5114734;28;20031;-64
2024/03/13 03:20:26;;;;;;;10.02;5.45;;;;;;;;;;5114269;28;20484;-67
2024/03/13 03:22:53;;;;;;;11.60;5.25;;;;;;;;;;5114900;28;20114;-66
2024/03/13 03:25:18;;;;;;;13.05;4.78;;;;;;;;;;5114234;28;20030;-65
2024/03/13 03:27:44;;;;;;;10.80;4.93;;;;;;;;;;5114542;28;20019;-66
2024/03/13 03:30:11;;;;;;;8.77;4.68;;;;;;;;;;5114666;28;20020;-65
2024/03/13 03:32:37;;;;;;;11.43;4.78;;;;;;;;;;5103065;28;20060;-67
2024/03/13 03:35:03;;;;;;;10.45;4.95;;;;;;;;;;5093816;28;20195;-67
2024/03/13 03:37:28;;;;;;;11.10;4.95;;;;;;;;;;5094612;28;20398;-68
2024/03/13 03:39:54;;;;;;;11.45;4.68;;;;;;;;;;5093728;28;20027;-68
2024/03/13 03:42:19;;;;;;;10.07;4.57;;;;;;;;;;5093608;28;20024;-68
2024/03/13 03:44:45;;;;;;;9.48;4.65;;;;;;;;;;5095175;28;20027;-68
2024/03/13 03:47:10;;;;;;;9.23;4.38;;;;;;;;;;5093683;28;20024;-68
2024/03/13 03:49:36;;;;;;;11.23;4.45;;;;;;;;;;5092759;28;20065;-68
2024/03/13 03:52:02;;;;;;;8.80;4.53;;;;;;;;;;5093846;28;20102;-65
2024/03/13 03:54:29;;;;;;;9.10;4.75;;;;;;;;;;5094118;28;20036;-67
2024/03/13 03:56:54;;;;;;;8.02;4.20;;;;;;;;;;5111062;28;20110;-68
2024/03/13 03:59:19;;;;;;;8.48;4.25;;;;;;;;;;5113919;28;20099;-67
2024/03/13 04:01:45;;;;;;;8.65;4.25;;;;;;;;;;5114225;28;20043;-67
2024/03/13 04:04:13;;;;;;;6.88;4.18;;;;;;;;;;5113910;28;20020;-69
2024/03/13 04:06:39;;;;;;;8.50;4.13;;;;;;;;;;5113549;28;20019;-68
2024/03/13 04:09:14;;;;;;;7.95;4.45;;;;;;;;;;5113820;28;20442;-67
2024/03/13 04:11:39;;;;;;;10.40;4.70;;;;;;;;;;5099178;28;20035;-67
2024/03/13 04:14:05;;;;;;;9.55;4.75;;;;;;;;;;5093119;28;20367;-67
2024/03/13 04:16:31;;;;;;;10.18;4.50;;;;;;;;;;5093493;28;20024;-69
2024/03/13 04:18:57;;;;;;;9.27;5.00;;;;;;;;;;5099445;28;20015;-69
2024/03/13 04:21:22;;;;;;;8.07;4.90;;;;;;;;;;5113678;28;20034;-66
2024/03/13 04:23:49;;;;;;;9.98;4.40;;;;;;;;;;5113691;28;20016;-67
2024/03/13 04:26:15;;;;;;;10.27;4.97;;;;;;;;;;5113069;28;20104;-70
2024/03/13 04:28:43;;;;;;;10.30;5.32;;;;;;;;;;5112600;28;20050;-68
2024/03/13 04:31:10;;;;;;;9.23;6.72;;;;;;;;;;5113630;28;20031;-66
2024/03/13 04:33:36;;;;;;;12.70;9.15;;;;;;;;;;5110490;28;20016;-64
2024/03/13 04:36:02;;;;;;;13.98;12.60;;;;;;;;;;5113242;28;20027;-68
2024/03/13 04:38:27;;;;;;;1999.90;999.90;;;;;;;;;;5113335;28;20039;-68
2024/03/13 04:40:53;;;;;;;1999.90;999.90;;;;;;;;;;5113449;28;20027;-67
2024/03/13 04:43:18;;;;;;;1999.90;999.90;;;;;;;;;;5099295;28;20020;-67
2024/03/13 04:45:44;;;;;;;1503.68;753.40;;;;;;;;;;5092412;28;20032;-67
2024/03/13 04:48:09;;;;;;;11.10;5.88;;;;;;;;;;5092852;28;20048;-67
2024/03/13 04:50:35;;;;;;;9.93;6.32;;;;;;;;;;5093224;28;20052;-65
2024/03/13 04:53:01;;;;;;;9.77;6.88;;;;;;;;;;5092942;28;20087;-67
2024/03/13 04:55:30;;;;;;;10.18;7.18;;;;;;;;;;5091454;28;20336;-66
2024/03/13 04:57:56;;;;;;;10.65;6.43;;;;;;;;;;5102978;28;20031;-67
2024/03/13 05:00:22;;;;;;;12.95;7.05;;;;;;;;;;5113256;28;20418;-65
2024/03/13 05:02:47;;;;;;;17.30;7.47;;;;;;;;;;5111659;28;20071;-66
2024/03/13 05:05:13;;;;;;;11.57;7.53;;;;;;;;;;5107166;28;20023;-68
2024/03/13 05:07:39;;;;;;;15.10;7.20;;;;;;;;;;5092362;28;20043;-68
2024/03/13 05:10:06;;;;;;;17.80;8.35;;;;;;;;;;5092249;28;20455;-67
2024/03/13 05:12:36;;;;;;;13.73;8.20;;;;;;;;;;5091852;28;20405;-66
2024/03/13 05:15:02;;;;;;;16.50;9.43;;;;;;;;;;5092501;28;20075;-67
2024/03/13 05:17:29;;;;;;;14.90;8.48;;;;;;;;;;5092526;28;20039;-66
2024/03/13 05:19:54;;;;;;;11.52;7.45;;;;;;;;;;5108498;28;20827;-71
2024/03/13 05:22:20;;;;;;;17.52;7.22;;;;;;;;;;5112615;28;20024;-70
2024/03/13 05:24:48;;;;;;;9.95;6.82;;;;;;;;;;5112848;28;20051;-69
2024/03/13 05:27:15;;;;;;;9.35;6.53;;;;;;;;;;5112366;28;20049;-69
2024/03/13 05:29:40;;;;;;;8.98;5.95;;;;;;;;;;5096783;28;20016;-71
2024/03/13 05:32:07;;;;;;;11.18;5.65;;;;;;;;;;5091590;28;20085;-64
2024/03/13 05:34:32;;;;;;;13.27;6.07;;;;;;;;;;5092027;28;20086;-73
2024/03/13 05:36:58;;;;;;;8.45;5.63;;;;;;;;;;5091294;28;20020;-73
2024/03/13 05:39:24;;;;;;;9.07;6.05;;;;;;;;;;5092400;28;20093;-72
2024/03/13 05:41:49;;;;;;;11.60;6.65;;;;;;;;;;5092409;28;20016;-68
2024/03/13 05:44:15;;;;;;;10.80;6.30;;;;;;;;;;5094419;28;20496;-63
2024/03/13 05:46:41;;;;;;;8.73;5.80;;;;;;;;;;5092103;28;20027;-61
2024/03/13 05:49:06;;;;;;;9.00;6.22;;;;;;;;;;5092551;28;20473;-66
2024/03/13 05:51:34;;;;;;;11.00;6.25;;;;;;;;;;5091776;28;20020;-69
2024/03/13 05:54:00;;;;;;;8.75;5.90;;;;;;;;;;5091770;28;20052;-64
2024/03/13 05:56:26;;;;;;;11.65;5.75;;;;;;;;;;5092010;28;20028;-64
2024/03/13 05:58:51;;;;;;;10.27;6.03;;;;;;;;;;5092134;28;20099;-64
2024/03/13 06:01:22;;;;;;;10.38;5.63;;;;;;;;;;5091678;28;20380;-64
2024/03/13 06:03:47;;;;;;;10.38;5.93;;;;;;;;;;5090981;28;20087;-64
2024/03/13 06:06:13;;;;;;;9.43;5.40;;;;;;;;;;5094319;28;20051;-64
2024/03/13 06:08:38;;;;;;;10.65;5.90;;;;;;;;;;5096689;28;20039;-62
2024/03/13 06:11:05;;;;;;;16.05;6.53;;;;;;;;;;5095753;28;20031;-64
2024/03/13 06:13:31;;;;;;;10.50;5.53;;;;;;;;;;5095651;28;20331;-64
2024/03/13 06:15:56;;;;;;;11.88;5.70;;;;;;;;;;5096927;28;20107;-63
2024/03/13 06:18:23;;;;;;;14.25;6.35;;;;;;;;;;5095489;28;20059;-63
2024/03/13 06:20:48;;;;;;;10.70;6.13;;;;;;;;;;5095370;28;20022;-66
2024/03/13 06:23:16;;;;;;;9.85;5.95;;;;;;;;;;5094087;28;20020;-73
2024/03/13 06:25:45;;;;;;;14.13;6.22;;;;;;;;;;5095246;28;20033;-70
2024/03/13 06:30:54;;;;;;;10.07;5.47;;;;;;;;;;5101310;28;20031;-67
2024/03/13 06:33:19;;;;;;;12.73;5.63;;;;;;;;;;5111425;28;20027;-68
2024/03/13 06:35:44;;;;;;;11.43;5.30;;;;;;;;;;5094493;28;20260;-67
2024/03/13 06:38:10;;;;;;;11.35;5.72;;;;;;;;;;5086848;28;20029;-65
2024/03/13 06:40:37;;;;;;;7.63;4.83;;;;;;;;;;5074798;28;20508;-65
2024/03/13 06:43:03;;;;;;;12.68;5.15;;;;;;;;;;5073836;28;20254;-65
2024/03/13 06:45:28;;;;;;;9.73;5.28;;;;;;;;;;5080400;28;20352;-67
2024/03/13 06:47:54;;;;;;;10.80;5.27;;;;;;;;;;5088299;28;20454;-66
2024/03/13 06:50:19;;;;;;;9.60;4.88;;;;;;;;;;5094303;28;20322;-65
2024/03/13 06:52:45;;;;;;;7.88;4.75;;;;;;;;;;5094180;28;20470;-66
2024/03/13 06:55:10;;;;;;;7.57;4.18;;;;;;;;;;5096783;28;20041;-65
2024/03/13 06:57:35;;;;;;;8.07;4.80;;;;;;;;;;5095025;28;20522;-66
2024/03/13 07:00:01;;;;;;;8.40;4.57;;;;;;;;;;5094485;28;20237;-65
2024/03/13 07:02:28;;;;;;;6.50;4.85;;;;;;;;;;5094607;28;20336;-67
2024/03/13 07:04:53;;;;;;;7.70;4.40;;;;;;;;;;5094337;28;20311;-67
2024/03/13 07:07:19;;;;;;;7.45;4.32;;;;;;;;;;5094932;28;20423;-66
2024/03/13 07:09:45;;;;;;;6.93;4.22;;;;;;;;;;5094737;28;20027;-66
2024/03/13 07:12:11;;;;;;;5.35;3.72;;;;;;;;;;5094208;28;20114;-67
2024/03/13 07:14:37;;;;;;;9.10;4.28;;;;;;;;;;5093771;28;20065;-66
2024/03/13 07:17:02;;;;;;;8.02;4.40;;;;;;;;;;5093827;28;20028;-67
2024/03/13 07:19:28;;;;;;;6.75;4.50;;;;;;;;;;5112764;28;20435;-67
2024/03/13 07:21:54;;;;;;;7.78;3.85;;;;;;;;;;5113839;28;20446;-66
2024/03/13 07:24:20;;;;;;;8.70;4.85;;;;;;;;;;5114402;28;20082;-66
2024/03/13 07:26:45;;;;;;;9.43;4.68;;;;;;;;;;5114839;28;20020;-66
2024/03/13 07:29:10;;;;;;;7.90;3.97;;;;;;;;;;5115062;28;20015;-66
2024/03/13 07:31:39;;;;;;;7.55;3.75;;;;;;;;;;5114505;28;20627;-66
2024/03/13 07:34:05;;;;;;;8.88;3.60;;;;;;;;;;5097156;28;20370;-66
2024/03/13 07:36:30;;;;;;;12.38;4.65;;;;;;;;;;5094073;28;20096;-66
2024/03/13 07:38:59;;;;;;;7.67;4.30;;;;;;;;;;5093995;28;20507;-66
2024/03/13 07:41:24;;;;;;;8.65;3.95;;;;;;;;;;5093646;28;20103;-66
2024/03/13 07:43:50;;;;;;;11.00;3.53;;;;;;;;;;5095402;28;20106;-67
2024/03/13 07:46:15;;;;;;;7.55;4.47;;;;;;;;;;5094044;28;20237;-70
2024/03/13 07:48:41;;;;;;;7.43;3.72;;;;;;;;;;5094261;28;20035;-68
2024/03/13 07:51:06;;;;;;;6.90;3.13;;;;;;;;;;5094161;28;20016;-68
2024/03/13 07:53:35;;;;;;;6.55;3.10;;;;;;;;;;5094172;28;20189;-67
2024/03/13 07:56:01;;;;;;;5.80;2.90;;;;;;;;;;5093020;28;20028;-67
2024/03/13 07:58:26;;;;;;;4.00;2.53;;;;;;;;;;5094255;28;20030;-67
2024/03/13 08:00:52;;;;;;;6.03;2.80;;;;;;;;;;5094019;28;20031;-67
2024/03/13 08:03:17;;;;;;;5.78;2.78;;;;;;;;;;5093782;28;20682;-66
2024/03/13 08:05:43;;;;;;;7.00;2.97;;;;;;;;;;5112963;28;20040;-66
2024/03/13 08:08:08;;;;;;;7.28;3.83;;;;;;;;;;5113639;28;20102;-67
2024/03/13 08:10:33;;;;;;;6.82;3.30;;;;;;;;;;5113335;28;20373;-67
2024/03/13 08:12:59;;;;;;;4.32;3.70;;;;;;;;;;5113727;28;20031;-67
2024/03/13 08:15:25;;;;;;;9.43;4.70;;;;;;;;;;5112709;28;20082;-67
2024/03/13 08:17:50;;;;;;;7.15;3.80;;;;;;;;;;5112247;28;20039;-67
2024/03/13 08:20:16;;;;;;;6.75;4.05;;;;;;;;;;5111493;28;20173;-64
2024/03/13 08:22:44;;;;;;;8.95;4.32;;;;;;;;;;5113489;28;20028;-68
2024/03/13 08:25:19;;;;;;;7.63;3.53;;;;;;;;;;5094080;28;20461;-63
2024/03/13 08:27:45;;;;;;;7.45;3.50;;;;;;;;;;5089826;28;20027;-69
2024/03/13 08:30:17;;;;;;;5.78;3.13;;;;;;;;;;5091746;28;20299;-73
2024/03/13 08:32:45;;;;;;;7.05;3.10;;;;;;;;;;5097665;28;20458;-76
2024/03/13 08:35:13;;;;;;;10.18;3.20;;;;;;;;;;5090023;28;20027;-70
2024/03/13 08:37:40;;;;;;;14.73;5.68;;;;;;;;;;5090638;28;20019;-71
2024/03/13 08:40:07;;;;;;;6.57;3.30;;;;;;;;;;5087019;28;20028;-72
2024/03/13 08:42:32;;;;;;;5.90;2.95;;;;;;;;;;5090398;28;20031;-71
2024/03/13 08:44:58;;;;;;;6.88;3.00;;;;;;;;;;5091647;28;20040;-73
2024/03/13 08:47:26;;;;;;;7.70;2.88;;;;;;;;;;5094758;28;20035;-72
2024/03/13 08:49:51;;;;;;;11.40;3.00;;;;;;;;;;5091752;28;20035;-69
2024/03/13 08:52:18;;;;;;;5.63;2.42;;;;;;;;;;5090764;28;20052;-66
2024/03/13 08:54:43;;;;;;;6.45;3.22;;;;;;;;;;5088602;28;20088;-70
2024/03/13 08:57:09;;;;;;;7.18;3.50;;;;;;;;;;5090198;28;20116;-74
2024/03/13 08:59:34;;;;;;;5.00;3.13;;;;;;;;;;5091920;28;20166;-71
2024/03/13 09:02:00;;;;;;;5.15;3.00;;;;;;;;;;5091225;28;20024;-71
2024/03/13 09:04:25;;;;;;;8.23;3.03;;;;;;;;;;5097661;28;20032;-68
2024/03/13 09:06:51;;;;;;;12.25;3.58;;;;;;;;;;5091175;28;20044;-62
2024/03/13 09:09:23;;;;;;;5.93;3.35;;;;;;;;;;5090854;28;20388;-69
2024/03/13 09:11:49;;;;;;;6.03;3.75;;;;;;;;;;5090517;28;20024;-67
2024/03/13 09:14:17;;;;;;;7.60;3.63;;;;;;;;;;5090900;28;20048;-66
2024/03/13 09:16:43;;;;;;;6.50;3.70;;;;;;;;;;5090266;28;20155;-62
2024/03/13 09:19:08;;;;;;;5.72;3.85;;;;;;;;;;5100704;28;20521;-67
2024/03/13 09:21:34;;;;;;;7.22;3.85;;;;;;;;;;5107054;28;20019;-68
2024/03/13 09:24:00;;;;;;;8.35;3.65;;;;;;;;;;5103667;28;20393;-64
2024/03/13 09:26:25;;;;;;;6.50;4.15;;;;;;;;;;5084229;28;20032;-68
2024/03/13 09:28:51;;;;;;;6.93;4.05;;;;;;;;;;5081964;28;20024;-75
2024/03/13 09:31:16;;;;;;;6.70;3.60;;;;;;;;;;5091666;28;20016;-74
2024/03/13 09:33:41;;;;;;;7.18;4.20;;;;;;;;;;5091402;28;20024;-75
2024/03/13 09:36:08;;;;;;;10.27;3.63;;;;;;;;;;5091558;28;20035;-65
2024/03/13 09:38:33;;;;;;;7.15;4.22;;;;;;;;;;5082784;28;20032;-71
2024/03/13 09:41:08;;;;;;;8.32;4.18;;;;;;;;;;5092875;28;20307;-73
2024/03/13 09:43:36;;;;;;;7.70;4.07;;;;;;;;;;5094347;28;20028;-73
2024/03/13 09:46:02;;;;;;;8.15;4.57;;;;;;;;;;5095155;28;20088;-68
2024/03/13 09:48:28;;;;;;;9.73;4.68;;;;;;;;;;5095128;28;20633;-65
2024/03/13 09:50:56;;;;;;;7.43;4.50;;;;;;;;;;5098073;28;20530;-65
2024/03/13 09:53:22;;;;;;;6.15;4.10;;;;;;;;;;5113472;28;20047;-66
2024/03/13 09:55:48;;;;;;;5.97;4.22;;;;;;;;;;5110475;28;20466;-66
2024/03/13 09:58:15;;;;;;;7.40;4.65;;;;;;;;;;5110186;28;20028;-67
2024/03/13 10:00:43;;;;;;;9.23;4.80;;;;;;;;;;5094908;28;20020;-64
2024/03/13 10:03:21;;;;;;;8.55;4.70;;;;;;;;;;5094511;28;20027;-68
2024/03/13 10:05:49;;;;;;;8.27;4.60;;;;;;;;;;5096334;28;20034;-67
2024/03/13 10:08:14;;;;;;;8.20;4.80;;;;;;;;;;5096177;28;20035;-65
2024/03/13 10:10:41;;;;;;;11.90;5.32;;;;;;;;;;5076872;28;20016;-64
2024/03/13 10:13:08;;;;;;;7.28;4.60;;;;;;;;;;5094782;28;20342;-64
2024/03/13 10:15:36;;;;;;;11.13;5.00;;;;;;;;;;5095448;28;20026;-65
2024/03/13 10:18:20;;;;;;;8.82;4.78;;;;;;;;;;5098157;28;20124;-63
2024/03/13 10:20:48;;;;;;;10.15;5.53;;;;;;;;;;5096020;28;20039;-72
2024/03/13 10:23:15;;;;;;;10.23;5.18;;;;;;;;;;5094234;28;20159;-72
2024/03/13 10:25:41;;;;;;;9.45;4.93;;;;;;;;;;5095350;28;20146;-73
2024/03/13 10:28:07;;;;;;;9.25;5.18;;;;;;;;;;5095662;28;20051;-72
2024/03/13 10:30:32;;;;;;;8.95;5.60;;;;;;;;;;5092322;28;20058;-70
2024/03/13 10:32:59;;;;;;;9.10;5.90;;;;;;;;;;5101204;28;20052;-63
2024/03/13 10:35:26;;;;;;;9.95;5.28;;;;;;;;;;5101096;27;20035;-71
2024/03/13 10:37:53;;;;;;;13.27;6.00;;;;;;;;;;5094437;28;20023;-69
2024/03/13 10:40:19;;;;;;;12.23;7.05;;;;;;;;;;5103449;28;20020;-67
2024/03/13 10:42:47;;;;;;;12.48;5.55;;;;;;;;;;5096359;28;20095;-63
2024/03/13 10:45:14;;;;;;;7.68;5.60;;;;;;;;;;5092710;28;20036;-64
2024/03/13 10:47:40;;;;;;;9.70;5.68;;;;;;;;;;5113958;28;20020;-67
2024/03/13 10:50:08;;;;;;;9.65;5.18;;;;;;;;;;5103395;28;20047;-68
2024/03/13 10:52:35;;;;;;;12.05;5.38;;;;;;;;;;5082957;28;20070;-66
2024/03/13 10:55:01;;;;;;;8.55;4.78;;;;;;;;;;5095865;27;20036;-68
2024/03/13 10:57:28;;;;;;;6.07;4.45;;;;;;;;;;5089815;28;20032;-68
2024/03/13 10:59:53;;;;;;;7.45;4.38;;;;;;;;;;5111514;28;20023;-65
2024/03/13 11:02:19;;;;;;;7.82;4.35;;;;;;;;;;5110145;28;20020;-61
2024/03/13 11:04:45;;;;;;;7.10;4.35;;;;;;;;;;5089084;28;20085;-67
2024/03/13 11:07:16;;;;;;;6.72;4.22;;;;;;;;;;5091163;28;20071;-63
2024/03/13 11:09:42;;;;;;;5.28;4.35;;;;;;;;;;5093706;28;20024;-65
2024/03/13 11:12:18;;;;;;;6.00;4.07;;;;;;;;;;5093745;28;20024;-68
2024/03/13 11:14:47;;;;;;;8.35;4.25;;;;;;;;;;5093645;28;20043;-66
2024/03/13 11:17:14;;;;;;;5.78;3.65;;;;;;;;;;5093571;28;20063;-63
2024/03/13 11:19:40;;;;;;;4.80;3.60;;;;;;;;;;5093576;28;20019;-66
2024/03/13 11:22:05;;;;;;;6.82;4.10;;;;;;;;;;5093573;28;20016;-66
2024/03/13 11:24:31;;;;;;;6.20;4.03;;;;;;;;;;5093550;28;20760;-66
2024/03/13 11:27:04;;;;;;;9.05;3.95;;;;;;;;;;5101906;28;20148;-65
2024/03/13 11:29:34;;;;;;;5.78;3.58;;;;;;;;;;5093461;28;20032;-60
2024/03/13 11:32:00;;;;;;;4.65;3.80;;;;;;;;;;5093849;28;20016;-65
2024/03/13 11:34:26;;;;;;;6.20;4.43;;;;;;;;;;5094897;28;20035;-67
2024/03/13 11:36:51;;;;;;;7.65;4.15;;;;;;;;;;5092678;28;20418;-66
2024/03/13 11:39:17;;;;;;;6.72;3.80;;;;;;;;;;5093034;28;20187;-66
2024/03/13 11:41:44;;;;;;;7.22;4.57;;;;;;;;;;5093357;28;20035;-63
2024/03/13 11:44:19;;;;;;;6.55;4.50;;;;;;;;;;5093061;28;20249;-63
2024/03/13 11:46:48;;;;;;;11.82;4.40;;;;;;;;;;5091417;28;20103;-63
2024/03/13 11:49:14;;;;;;;7.07;4.15;;;;;;;;;;5090893;28;20656;-64
2024/03/13 11:52:01;;;;;;;8.40;4.40;;;;;;;;;;5106447;28;20127;-63
2024/03/13 11:54:32;;;;;;;7.32;4.53;;;;;;;;;;5098412;27;20135;-64
2024/03/13 11:57:17;;;;;;;5.32;4.13;;;;;;;;;;5105870;28;20025;-61
2024/03/13 11:59:50;;;;;;;13.10;4.35;;;;;;;;;;5094008;28;20020;-62
2024/03/13 12:02:31;;;;;;;6.70;4.20;;;;;;;;;;5093009;28;20398;-63
2024/03/13 12:05:01;;;;;;;8.07;4.97;;;;;;;;;;5096178;28;20038;-66
2024/03/13 12:07:26;;;;;;;9.90;4.82;;;;;;;;;;5099305;28;20414;-65
2024/03/13 12:09:52;;;;;;;8.77;5.38;;;;;;;;;;5093283;28;20024;-63
2024/03/13 12:12:18;;;;;;;8.30;4.78;;;;;;;;;;5093170;28;20247;-65
2024/03/13 12:14:44;;;;;;;7.97;5.07;;;;;;;;;;5092267;28;20461;-65
2024/03/13 12:17:14;;;;;;;5.90;4.60;;;;;;;;;;5092961;28;20028;-66
2024/03/13 12:19:40;;;;;;;9.45;4.40;;;;;;;;;;5093165;28;20024;-66
2024/03/13 12:22:06;;;;;;;11.20;4.88;;;;;;;;;;5093617;28;20024;-66
2024/03/13 12:24:33;;;;;;;7.53;3.90;;;;;;;;;;5092821;28;20145;-67
2024/03/13 12:26:58;;;;;;;7.13;4.47;;;;;;;;;;5092388;28;20020;-65
2024/03/13 12:29:27;;;;;;;9.25;4.57;;;;;;;;;;5092809;28;20081;-64
2024/03/13 12:31:53;;;;;;;6.68;4.25;;;;;;;;;;5093437;28;20085;-65
2024/03/13 12:34:18;;;;;;;6.70;4.38;;;;;;;;;;5093108;28;20032;-66
2024/03/13 12:36:44;;;;;;;7.15;4.28;;;;;;;;;;5092392;28;20032;-66
2024/03/13 12:39:10;;;;;;;6.03;3.40;;;;;;;;;;5091563;28;20058;-65
2024/03/13 12:41:36;;;;;;;11.07;4.40;;;;;;;;;;5093188;28;20027;-65
2024/03/13 12:44:03;;;;;;;12.57;5.00;;;;;;;;;;5092321;28;20016;-67
2024/03/13 12:46:29;;;;;;;6.15;3.83;;;;;;;;;;5092253;28;20382;-65
2024/03/13 12:48:55;;;;;;;6.72;3.60;;;;;;;;;;5092580;28;20051;-65
2024/03/13 12:51:20;;;;;;;8.55;3.55;;;;;;;;;;5092353;28;20028;-65
2024/03/13 12:53:46;;;;;;;4.65;3.00;;;;;;;;;;5092987;28;20052;-65
2024/03/13 12:56:12;;;;;;;4.07;2.80;;;;;;;;;;5092175;28;20443;-66
2024/03/13 12:58:37;;;;;;;5.40;3.00;;;;;;;;;;5091840;28;20355;-65
2024/03/13 13:01:04;;;;;;;7.22;3.05;;;;;;;;;;5092837;28;20338;-65
2024/03/13 13:03:32;;;;;;;13.00;3.72;;;;;;;;;;5092263;28;20103;-66
2024/03/13 13:05:59;;;;;;;5.93;2.95;;;;;;;;;;5092544;28;20032;-65
2024/03/13 13:08:26;;;;;;;6.60;3.00;;;;;;;;;;5092239;28;20032;-66
2024/03/13 13:10:51;;;;;;;5.10;3.03;;;;;;;;;;5092313;28;20035;-66
2024/03/13 13:13:17;;;;;;;6.72;2.88;;;;;;;;;;5092094;28;20335;-65
2024/03/13 13:15:45;;;;;;;6.22;3.05;;;;;;;;;;5091577;28;20032;-64
2024/03/13 13:18:10;;;;;;;5.10;2.55;;;;;;;;;;5091883;28;20030;-64
2024/03/13 13:20:35;;;;;;;4.95;2.35;;;;;;;;;;5092154;28;20016;-64
2024/03/13 13:23:03;;;;;;;4.22;2.80;;;;;;;;;;5092479;28;20415;-65
2024/03/13 13:25:28;;;;;;;9.18;2.65;;;;;;;;;;5091562;28;20101;-65
2024/03/13 13:27:57;;;;;;;3.63;2.70;;;;;;;;;;5091261;28;20434;-63
2024/03/13 13:30:23;;;;;;;6.60;3.50;;;;;;;;;;5092577;28;20103;-66
2024/03/13 13:32:50;;;;;;;5.95;3.83;;;;;;;;;;5092114;28;20042;-66
2024/03/13 13:35:15;;;;;;;4.50;2.50;;;;;;;;;;5092051;28;20028;-65
2024/03/13 13:37:41;;;;;;;7.18;2.85;;;;;;;;;;5092216;28;20028;-65
2024/03/13 13:40:41;;;;;;;8.48;2.28;;;;;;;;;;5092304;28;20061;-65
2024/03/13 13:43:00;;;;;;;5.03;2.70;;;;;;;;;;5088233;28;20028;-67
2024/03/13 13:45:25;;;;;;;6.47;3.15;;;;;;;;;;5090813;28;20458;-64
2024/03/13 13:47:52;;;;;;;5.05;2.58;;;;;;;;;;5092633;28;20113;-67
2024/03/13 13:50:18;;;;;;;5.88;2.53;;;;;;;;;;5091669;28;20020;-66
2024/03/13 13:52:45;;;;;;;4.18;2.30;;;;;;;;;;5091662;28;20056;-66
2024/03/13 13:55:12;;;;;;;6.05;2.70;;;;;;;;;;5092404;28;20036;-65
2024/03/13 13:57:38;;;;;;;5.80;2.38;;;;;;;;;;5092697;28;20028;-65
2024/03/13 14:00:10;;;;;;;6.28;2.60;;;;;;;;;;5095216;28;20408;-66
2024/03/13 14:02:36;;;;;;;6.68;2.00;;;;;;;;;;5074374;28;20036;-65
2024/03/13 14:05:04;;;;;;;3.78;1.95;;;;;;;;;;5092386;28;20035;-66
2024/03/13 14:07:33;;;;;;;4.80;2.10;;;;;;;;;;5091222;28;20024;-65
2024/03/13 14:09:58;;;;;;;4.05;2.67;;;;;;;;;;5089558;28;20035;-65
2024/03/13 14:12:32;;;;;;;6.28;2.13;;;;;;;;;;5091131;28;20028;-66
2024/03/13 14:14:58;;;;;;;5.10;2.20;;;;;;;;;;5090854;28;20016;-66
2024/03/13 14:17:27;;;;;;;3.70;2.00;;;;;;;;;;5091271;28;20023;-65
2024/03/13 14:19:52;;;;;;;5.75;2.50;;;;;;;;;;5097337;28;20081;-68
2024/03/13 14:22:18;;;;;;;3.13;1.95;;;;;;;;;;5090765;28;20024;-74
2024/03/13 14:24:43;;;;;;;3.70;2.20;;;;;;;;;;5090864;28;20215;-72
2024/03/13 14:27:10;;;;;;;5.07;1.90;;;;;;;;;;5091681;28;20012;-65
2024/03/13 14:29:36;;;;;;;5.30;1.98;;;;;;;;;;5092035;28;20034;-67
2024/03/13 14:32:07;;;;;;;5.07;2.13;;;;;;;;;;5093241;28;20103;-66
2024/03/13 14:34:38;;;;;;;5.20;2.20;;;;;;;;;;5092783;28;20488;-74
2024/03/13 14:37:11;;;;;;;2.70;1.85;;;;;;;;;;5093881;28;20016;-73
2024/03/13 14:39:36;;;;;;;3.35;2.10;;;;;;;;;;5089657;28;20498;-73
2024/03/13 14:42:02;;;;;;;7.00;2.58;;;;;;;;;;5092705;28;20095;-69
2024/03/13 14:44:28;;;;;;;3.22;2.10;;;;;;;;;;5093131;28;20363;-70
2024/03/13 14:46:53;;;;;;;4.63;1.88;;;;;;;;;;5092474;28;20039;-62
2024/03/13 14:49:19;;;;;;;3.05;1.80;;;;;;;;;;5094297;28;20426;-71
2024/03/13 14:51:45;;;;;;;2.58;1.70;;;;;;;;;;5092719;28;20063;-68
2024/03/13 14:54:10;;;;;;;3.45;1.52;;;;;;;;;;5091763;28;20035;-65
2024/03/13 14:56:36;;;;;;;5.15;1.70;;;;;;;;;;5090345;28;20020;-65
2024/03/13 14:59:01;;;;;;;2.83;1.73;;;;;;;;;;5091885;28;20026;-68